sensor_id;sensor_type;location;lat;lon;timestamp;pressure;altitude;pressure_sealevel;temperature;humidity
28606;BME280;46498;49.968;7.754;2024-03-08T00:04:21;-18363.00;;;2.67;100.00
28606;BME280;46498;49.968;7.754;2024-03-08T00:09:22;-18359.00;;;2.57;100.00
28606;BME280;46498;49.968;7.754;2024-03-08T00:14:23;-18356.00;;;2.47;100.00
28606;BME280;46498;49.968;7.754;2024-03-08T00:19:23;-18355.00;;;2.42;100.00
28606;BME280;46498;49.968;7.754;2024-03-08T00:24:24;-18354.00;;;2.40;100.00
28606;BME280;46498;49.968;7.754;2024-03-08T00:29:26;-18352.00;;;2.34;100.00
28606;BME280;46498;49.968;7.754;2024-03-08T00:34:27;-18348.00;;;2.23;100.00
28606;BME280;46498;49.968;7.754;2024-03-08T00:39:27;-18348.00;;;2.23;100.00
28606;BME280;46498;49.968;7.754;2024-03-08T00:44:28;-18346.00;;;2.17;100.00
28606;BME280;46498;49.968;7.754;2024-03-08T00:49:29;-18345.00;;;2.13;100.00
28606;BME280;46498;49.968;7.754;2024-03-08T00:54:30;-18340.00;;;1.97;100.00
28606;BME280;46498;49.968;7.754;2024-03-08T00:59:31;-18339.00;;;1.93;100.00
28606;BME280;46498;49.968;7.754;2024-03-08T01:04:33;-18338.00;;;1.91;100.00
28606;BME280;46498;49.968;7.754;2024-03-08T01:09:34;-18336.00;;;1.84;100.00
28606;BME280;46498;49.968;7.754;2024-03-08T01:14:35;-18335.00;;;1.80;100.00
28606;BME280;46498;49.968;7.754;2024-03-08T01:19:36;-18334.00;;;1.77;100.00
28606;BME280;46498;49.968;7.754;2024-03-08T01:24:37;-18332.00;;;1.72;100.00
28606;BME280;46498;49.968;7.754;2024-03-08T01:29:38;-18331.00;;;1.69;100.00
28606;BME280;46498;49.968;7.754;2024-03-08T01:34:39;-18328.00;;;1.60;100.00
28606;BME280;46498;49.968;7.754;2024-03-08T01:39:39;-18326.00;;;1.53;100.00
28606;BME280;46498;49.968;7.754;2024-03-08T01:44:40;-18325.00;;;1.48;100.00
28606;BME280;46498;49.968;7.754;2024-03-08T01:49:41;-18321.00;;;1.36;100.00
28606;BME280;46498;49.968;7.754;2024-03-08T01:54:42;-18320.00;;;1.33;100.00
28606;BME280;46498;49.968;7.754;2024-03-08T01:59:43;-18318.00;;;1.27;100.00
28606;BME280;46498;49.968;7.754;2024-03-08T02:04:44;-18317.00;;;1.23;100.00
28606;BME280;46498;49.968;7.754;2024-03-08T02:09:45;-18315.00;;;1.19;100.00
28606;BME280;46498;49.968;7.754;2024-03-08T02:14:46;-18315.00;;;1.18;100.00
28606;BME280;46498;49.968;7.754;2024-03-08T02:19:47;-18311.00;;;1.06;100.00
28606;BME280;46498;49.968;7.754;2024-03-08T02:24:48;-18309.00;;;1.00;100.00
28606;BME280;46498;49.968;7.754;2024-03-08T02:29:50;-18308.00;;;0.95;100.00
28606;BME280;46498;49.968;7.754;2024-03-08T02:34:56;-18303.00;;;0.81;100.00
28606;BME280;46498;49.968;7.754;2024-03-08T02:39:57;-18300.00;;;0.70;100.00
28606;BME280;46498;49.968;7.754;2024-03-08T02:44:58;-18299.00;;;0.68;100.00
28606;BME280;46498;49.968;7.754;2024-03-08T02:49:58;-18298.00;;;0.65;100.00
28606;BME280;46498;49.968;7.754;2024-03-08T02:54:59;-18298.00;;;0.64;100.00
28606;BME280;46498;49.968;7.754;2024-03-08T03:00:00;-18297.00;;;0.62;100.00
28606;BME280;46498;49.968;7.754;2024-03-08T03:05:01;-18295.00;;;0.55;100.00
28606;BME280;46498;49.968;7.754;2024-03-08T03:10:06;-18292.00;;;0.46;100.00
28606;BME280;46498;49.968;7.754;2024-03-08T03:15:08;-18291.00;;;0.42;100.00
28606;BME280;46498;49.968;7.754;2024-03-08T03:20:09;-18290.00;;;0.40;100.00
28606;BME280;46498;49.968;7.754;2024-03-08T03:25:13;-18286.00;;;0.26;100.00
28606;BME280;46498;49.968;7.754;2024-03-08T03:30:15;-18287.00;;;0.31;100.00
28606;BME280;46498;49.968;7.754;2024-03-08T03:35:21;-18284.00;;;0.22;100.00
28606;BME280;46498;49.968;7.754;2024-03-08T03:40:23;-18281.00;;;0.11;100.00
28606;BME280;46498;49.968;7.754;2024-03-08T03:45:26;-18280.00;;;0.09;100.00
28606;BME280;46498;49.968;7.754;2024-03-08T03:50:27;-18281.00;;;0.11;100.00
28606;BME280;46498;49.968;7.754;2024-03-08T03:55:28;-18279.00;;;0.05;100.00
28606;BME280;46498;49.968;7.754;2024-03-08T04:00:29;-18277.00;;;-0.02;100.00
28606;BME280;46498;49.968;7.754;2024-03-08T04:05:30;-18278.00;;;0.01;100.00
28606;BME280;46498;49.968;7.754;2024-03-08T04:10:32;-18278.00;;;0.01;100.00
28606;BME280;46498;49.968;7.754;2024-03-08T04:15:33;-18277.00;;;-0.02;100.00
28606;BME280;46498;49.968;7.754;2024-03-08T04:20:34;-18276.00;;;-0.04;100.00
28606;BME280;46498;49.968;7.754;2024-03-08T04:25:35;-18276.00;;;-0.05;100.00
28606;BME280;46498;49.968;7.754;2024-03-08T04:30:36;-18276.00;;;-0.06;100.00
28606;BME280;46498;49.968;7.754;2024-03-08T04:35:37;-18275.00;;;-0.09;100.00
28606;BME280;46498;49.968;7.754;2024-03-08T04:40:38;-18273.00;;;-0.13;100.00
28606;BME280;46498;49.968;7.754;2024-03-08T04:45:40;-18272.00;;;-0.18;100.00
28606;BME280;46498;49.968;7.754;2024-03-08T04:50:43;-18272.00;;;-0.18;100.00
28606;BME280;46498;49.968;7.754;2024-03-08T04:55:45;-18271.00;;;-0.20;100.00
28606;BME280;46498;49.968;7.754;2024-03-08T05:00:46;-18269.00;;;-0.26;100.00
28606;BME280;46498;49.968;7.754;2024-03-08T05:05:47;-18269.00;;;-0.27;100.00
28606;BME280;46498;49.968;7.754;2024-03-08T05:10:48;-18267.00;;;-0.32;100.00
28606;BME280;46498;49.968;7.754;2024-03-08T05:15:49;-18265.00;;;-0.38;100.00
28606;BME280;46498;49.968;7.754;2024-03-08T05:20:53;-18265.00;;;-0.40;100.00
28606;BME280;46498;49.968;7.754;2024-03-08T05:25:53;-18262.00;;;-0.47;100.00
28606;BME280;46498;49.968;7.754;2024-03-08T05:30:54;-18259.00;;;-0.56;100.00
28606;BME280;46498;49.968;7.754;2024-03-08T05:35:57;-18259.00;;;-0.59;100.00
28606;BME280;46498;49.968;7.754;2024-03-08T05:40:58;-18257.00;;;-0.63;100.00
28606;BME280;46498;49.968;7.754;2024-03-08T05:45:59;-18257.00;;;-0.65;100.00
28606;BME280;46498;49.968;7.754;2024-03-08T05:51:00;-18255.00;;;-0.70;100.00
28606;BME280;46498;49.968;7.754;2024-03-08T05:56:02;-18254.00;;;-0.72;100.00
28606;BME280;46498;49.968;7.754;2024-03-08T06:01:04;-18257.00;;;-0.65;100.00
28606;BME280;46498;49.968;7.754;2024-03-08T06:06:08;-18257.00;;;-0.63;100.00
28606;BME280;46498;49.968;7.754;2024-03-08T06:11:09;-18258.00;;;-0.62;100.00
28606;BME280;46498;49.968;7.754;2024-03-08T06:16:10;-18260.00;;;-0.53;100.00
28606;BME280;46498;49.968;7.754;2024-03-08T06:21:12;-18261.00;;;-0.51;100.00
28606;BME280;46498;49.968;7.754;2024-03-08T06:26:13;-18260.00;;;-0.53;100.00
28606;BME280;46498;49.968;7.754;2024-03-08T06:31:14;-18263.00;;;-0.46;100.00
28606;BME280;46498;49.968;7.754;2024-03-08T06:36:16;-18267.00;;;-0.33;100.00
28606;BME280;46498;49.968;7.754;2024-03-08T06:41:19;-18267.00;;;-0.33;100.00
28606;BME280;46498;49.968;7.754;2024-03-08T06:46:20;-18268.00;;;-0.29;100.00
28606;BME280;46498;49.968;7.754;2024-03-08T06:51:21;-18271.00;;;-0.19;100.00
28606;BME280;46498;49.968;7.754;2024-03-08T06:56:22;-18272.00;;;-0.16;100.00
28606;BME280;46498;49.968;7.754;2024-03-08T07:01:23;-18276.00;;;-0.04;100.00
28606;BME280;46498;49.968;7.754;2024-03-08T07:06:24;-18278.00;;;0.02;100.00
28606;BME280;46498;49.968;7.754;2024-03-08T07:11:25;-18283.00;;;0.18;100.00
28606;BME280;46498;49.968;7.754;2024-03-08T07:16:26;-18286.00;;;0.26;100.00
28606;BME280;46498;49.968;7.754;2024-03-08T07:21:27;-18283.00;;;0.17;100.00
28606;BME280;46498;49.968;7.754;2024-03-08T07:26:28;-18289.00;;;0.35;100.00
28606;BME280;46498;49.968;7.754;2024-03-08T07:31:31;-18299.00;;;0.67;100.00
28606;BME280;46498;49.968;7.754;2024-03-08T07:36:50;-18292.00;;;0.46;100.00
28606;BME280;46498;49.968;7.754;2024-03-08T07:41:51;-18300.00;;;0.70;100.00
28606;BME280;46498;49.968;7.754;2024-03-08T07:46:55;-18295.00;;;0.54;100.00
28606;BME280;46498;49.968;7.754;2024-03-08T07:51:58;-18298.00;;;0.64;100.00
28606;BME280;46498;49.968;7.754;2024-03-08T07:57:00;-18307.00;;;0.91;100.00
28606;BME280;46498;49.968;7.754;2024-03-08T08:02:04;-18308.00;;;0.96;100.00
28606;BME280;46498;49.968;7.754;2024-03-08T08:07:05;-18303.00;;;0.80;100.00
28606;BME280;46498;49.968;7.754;2024-03-08T08:12:10;-18315.00;;;1.18;100.00
28606;BME280;46498;49.968;7.754;2024-03-08T08:17:13;-18314.00;;;1.15;100.00
28606;BME280;46498;49.968;7.754;2024-03-08T08:22:13;-18318.00;;;1.26;100.00
28606;BME280;46498;49.968;7.754;2024-03-08T08:27:14;-18322.00;;;1.41;100.00
28606;BME280;46498;49.968;7.754;2024-03-08T08:32:15;-18326.00;;;1.51;100.00
28606;BME280;46498;49.968;7.754;2024-03-08T08:37:16;-18328.00;;;1.59;100.00
28606;BME280;46498;49.968;7.754;2024-03-08T08:42:20;-18330.00;;;1.66;100.00
28606;BME280;46498;49.968;7.754;2024-03-08T08:47:21;-18331.00;;;1.67;100.00
28606;BME280;46498;49.968;7.754;2024-03-08T08:52:22;-18324.00;;;1.47;100.00
28606;BME280;46498;49.968;7.754;2024-03-08T08:57:23;-18328.00;;;1.60;100.00
28606;BME280;46498;49.968;7.754;2024-03-08T09:02:24;-18333.00;;;1.75;100.00
28606;BME280;46498;49.968;7.754;2024-03-08T09:07:26;-18341.00;;;2.00;100.00
28606;BME280;46498;49.968;7.754;2024-03-08T09:12:28;-18342.00;;;2.02;100.00
28606;BME280;46498;49.968;7.754;2024-03-08T09:17:29;-18340.00;;;1.98;100.00
28606;BME280;46498;49.968;7.754;2024-03-08T09:22:30;-18357.00;;;2.48;100.00
28606;BME280;46498;49.968;7.754;2024-03-08T09:27:31;-18363.00;;;2.70;100.00
28606;BME280;46498;49.968;7.754;2024-03-08T09:32:32;-18370.00;;;2.90;100.00
28606;BME280;46498;49.968;7.754;2024-03-08T09:37:33;-18365.00;;;2.75;100.00
28606;BME280;46498;49.968;7.754;2024-03-08T09:42:38;-18366.00;;;2.78;100.00
28606;BME280;46498;49.968;7.754;2024-03-08T09:47:40;-18359.00;;;2.57;100.00
28606;BME280;46498;49.968;7.754;2024-03-08T09:52:42;-18369.00;;;2.86;100.00
28606;BME280;46498;49.968;7.754;2024-03-08T09:57:44;-18387.00;;;3.45;100.00
28606;BME280;46498;49.968;7.754;2024-03-08T10:03:17;-18397.00;;;3.76;100.00
28606;BME280;46498;49.968;7.754;2024-03-08T10:08:18;-18401.00;;;3.87;100.00
28606;BME280;46498;49.968;7.754;2024-03-08T10:13:20;-18410.00;;;4.16;100.00
28606;BME280;46498;49.968;7.754;2024-03-08T10:18:21;-18433.00;;;4.88;100.00
28606;BME280;46498;49.968;7.754;2024-03-08T10:23:23;-18422.00;;;4.54;100.00
28606;BME280;46498;49.968;7.754;2024-03-08T10:28:24;-18420.00;;;4.47;100.00
28606;BME280;46498;49.968;7.754;2024-03-08T10:33:29;-18416.00;;;4.34;100.00
28606;BME280;46498;49.968;7.754;2024-03-08T10:38:31;-18439.00;;;5.06;100.00
28606;BME280;46498;49.968;7.754;2024-03-08T10:47:18;-18411.00;;;4.19;100.00
28606;BME280;46498;49.968;7.754;2024-03-08T10:52:20;-18415.00;;;4.30;100.00
28606;BME280;46498;49.968;7.754;2024-03-08T10:57:23;-18443.00;;;5.18;100.00
28606;BME280;46498;49.968;7.754;2024-03-08T11:02:25;-18455.00;;;5.58;100.00
28606;BME280;46498;49.968;7.754;2024-03-08T11:07:27;-18458.00;;;5.67;100.00
28606;BME280;46498;49.968;7.754;2024-03-08T11:12:36;-18464.00;;;5.84;100.00
28606;BME280;46498;49.968;7.754;2024-03-08T11:17:45;-18465.00;;;5.89;100.00
28606;BME280;46498;49.968;7.754;2024-03-08T11:22:51;-18482.00;;;6.42;100.00
28606;BME280;46498;49.968;7.754;2024-03-08T11:28:06;-18489.00;;;6.62;83.19
28606;BME280;46498;49.968;7.754;2024-03-08T11:33:11;-18492.00;;;6.73;81.77
28606;BME280;46498;49.968;7.754;2024-03-08T11:38:13;-18465.00;;;5.88;90.21
28606;BME280;46498;49.968;7.754;2024-03-08T11:43:14;-18464.00;;;5.83;92.45
28606;BME280;46498;49.968;7.754;2024-03-08T11:48:15;-18484.00;;;6.47;86.72
28606;BME280;46498;49.968;7.754;2024-03-08T11:53:16;-18471.00;;;6.08;85.10
28606;BME280;46498;49.968;7.754;2024-03-08T11:58:17;-18478.00;;;6.30;84.50
28606;BME280;46498;49.968;7.754;2024-03-08T12:03:18;-18476.00;;;6.22;87.92
28606;BME280;46498;49.968;7.754;2024-03-08T12:08:19;-18486.00;;;6.53;90.85
28606;BME280;46498;49.968;7.754;2024-03-08T12:13:20;-18484.00;;;6.48;83.59
28606;BME280;46498;49.968;7.754;2024-03-08T12:18:21;-18491.00;;;6.69;86.30
28606;BME280;46498;49.968;7.754;2024-03-08T12:23:22;-18489.00;;;6.62;88.43
28606;BME280;46498;49.968;7.754;2024-03-08T12:28:23;-18489.00;;;6.64;87.04
28606;BME280;46498;49.968;7.754;2024-03-08T12:33:24;-18473.00;;;6.13;87.25
28606;BME280;46498;49.968;7.754;2024-03-08T12:38:28;-18472.00;;;6.11;94.24
28606;BME280;46498;49.968;7.754;2024-03-08T12:43:29;-18486.00;;;6.53;94.52
28606;BME280;46498;49.968;7.754;2024-03-08T12:48:37;-18500.00;;;6.96;90.49
28606;BME280;46498;49.968;7.754;2024-03-08T12:53:42;-18493.00;;;6.77;83.99
28606;BME280;46498;49.968;7.754;2024-03-08T12:58:45;-18512.00;;;7.35;88.89
28606;BME280;46498;49.968;7.754;2024-03-08T13:03:46;-18501.00;;;7.02;81.08
28606;BME280;46498;49.968;7.754;2024-03-08T13:08:47;-18493.00;;;6.76;82.90
28606;BME280;46498;49.968;7.754;2024-03-08T13:13:49;-18502.00;;;7.03;88.39
28606;BME280;46498;49.968;7.754;2024-03-08T13:18:50;-18511.00;;;7.31;83.86
28606;BME280;46498;49.968;7.754;2024-03-08T13:23:55;-18508.00;;;7.24;80.19
28606;BME280;46498;49.968;7.754;2024-03-08T13:28:56;-18505.00;;;7.13;85.09
28606;BME280;46498;49.968;7.754;2024-03-08T13:33:59;-18514.00;;;7.43;78.61
28606;BME280;46498;49.968;7.754;2024-03-08T13:39:00;-18522.00;;;7.68;73.51
28606;BME280;46498;49.968;7.754;2024-03-08T13:44:03;-18516.00;;;7.49;83.88
28606;BME280;46498;49.968;7.754;2024-03-08T13:49:05;-18503.00;;;7.08;81.30
28606;BME280;46498;49.968;7.754;2024-03-08T13:54:08;-18510.00;;;7.28;80.03
28606;BME280;46498;49.968;7.754;2024-03-08T13:59:10;-18510.00;;;7.29;82.15
28606;BME280;46498;49.968;7.754;2024-03-08T14:04:12;-18508.00;;;7.23;77.55
28606;BME280;46498;49.968;7.754;2024-03-08T14:09:16;-18517.00;;;7.51;75.42
28606;BME280;46498;49.968;7.754;2024-03-08T14:14:21;-18514.00;;;7.43;78.29
28606;BME280;46498;49.968;7.754;2024-03-08T14:19:23;-18509.00;;;7.25;74.06
28606;BME280;46498;49.968;7.754;2024-03-08T14:24:25;-18516.00;;;7.49;75.83
28606;BME280;46498;49.968;7.754;2024-03-08T14:29:26;-18529.00;;;7.90;75.81
28606;BME280;46498;49.968;7.754;2024-03-08T14:34:33;-18518.00;;;7.54;72.13
28606;BME280;46498;49.968;7.754;2024-03-08T14:39:34;-18509.00;;;7.26;73.88
28606;BME280;46498;49.968;7.754;2024-03-08T14:44:38;-18507.00;;;7.19;79.21
28606;BME280;46498;49.968;7.754;2024-03-08T14:49:39;-18506.00;;;7.18;77.14
28606;BME280;46498;49.968;7.754;2024-03-08T14:54:40;-18512.00;;;7.34;79.27
28606;BME280;46498;49.968;7.754;2024-03-08T14:59:41;-18511.00;;;7.31;76.74
28606;BME280;46498;49.968;7.754;2024-03-08T15:04:46;-18506.00;;;7.18;77.48
28606;BME280;46498;49.968;7.754;2024-03-08T15:09:53;-18514.00;;;7.43;76.26
28606;BME280;46498;49.968;7.754;2024-03-08T15:14:56;-18517.00;;;7.51;74.82
28606;BME280;46498;49.968;7.754;2024-03-08T15:19:57;-18521.00;;;7.63;78.64
28606;BME280;46498;49.968;7.754;2024-03-08T15:24:58;-18512.00;;;7.34;76.72
28606;BME280;46498;49.968;7.754;2024-03-08T15:29:59;-18509.00;;;7.25;75.15
28606;BME280;46498;49.968;7.754;2024-03-08T15:35:00;-18507.00;;;7.20;77.56
28606;BME280;46498;49.968;7.754;2024-03-08T15:40:02;-18506.00;;;7.18;80.90
28606;BME280;46498;49.968;7.754;2024-03-08T15:45:07;-18501.00;;;6.99;78.59
28606;BME280;46498;49.968;7.754;2024-03-08T15:50:10;-18500.00;;;6.96;81.55
28606;BME280;46498;49.968;7.754;2024-03-08T15:55:16;-18499.00;;;6.95;80.85
28606;BME280;46498;49.968;7.754;2024-03-08T16:00:28;-18503.00;;;7.08;80.09
28606;BME280;46498;49.968;7.754;2024-03-08T16:05:37;-18501.00;;;7.01;80.54
28606;BME280;46498;49.968;7.754;2024-03-08T16:10:47;-18499.00;;;6.95;80.62
28606;BME280;46498;49.968;7.754;2024-03-08T16:15:56;-18501.00;;;7.00;83.51
28606;BME280;46498;49.968;7.754;2024-03-08T16:20:57;-18499.00;;;6.94;83.77
28606;BME280;46498;49.968;7.754;2024-03-08T16:25:58;-18499.00;;;6.93;83.87
28606;BME280;46498;49.968;7.754;2024-03-08T16:30:59;-18495.00;;;6.81;83.58
28606;BME280;46498;49.968;7.754;2024-03-08T16:36:00;-18494.00;;;6.80;83.46
28606;BME280;46498;49.968;7.754;2024-03-08T16:41:03;-18494.00;;;6.78;86.04
28606;BME280;46498;49.968;7.754;2024-03-08T16:46:05;-18494.00;;;6.78;87.07
28606;BME280;46498;49.968;7.754;2024-03-08T16:51:07;-18490.00;;;6.65;85.88
28606;BME280;46498;49.968;7.754;2024-03-08T16:56:09;-18488.00;;;6.60;88.20
28606;BME280;46498;49.968;7.754;2024-03-08T17:01:15;-18485.00;;;6.51;86.21
28606;BME280;46498;49.968;7.754;2024-03-08T17:06:16;-18481.00;;;6.37;87.68
28606;BME280;46498;49.968;7.754;2024-03-08T17:11:19;-18477.00;;;6.24;89.81
28606;BME280;46498;49.968;7.754;2024-03-08T17:16:22;-18477.00;;;6.25;89.24
28606;BME280;46498;49.968;7.754;2024-03-08T17:21:25;-18472.00;;;6.11;91.63
28606;BME280;46498;49.968;7.754;2024-03-08T17:26:26;-18473.00;;;6.14;89.33
28606;BME280;46498;49.968;7.754;2024-03-08T17:31:28;-18471.00;;;6.06;91.39
28606;BME280;46498;49.968;7.754;2024-03-08T17:36:32;-18467.00;;;5.95;92.06
28606;BME280;46498;49.968;7.754;2024-03-08T17:41:34;-18467.00;;;5.93;91.96
28606;BME280;46498;49.968;7.754;2024-03-08T17:46:35;-18467.00;;;5.95;91.13
28606;BME280;46498;49.968;7.754;2024-03-08T17:51:38;-18468.00;;;5.98;90.76
28606;BME280;46498;49.968;7.754;2024-03-08T17:56:43;-18468.00;;;5.97;89.93
28606;BME280;46498;49.968;7.754;2024-03-08T18:01:44;-18465.00;;;5.89;90.17
28606;BME280;46498;49.968;7.754;2024-03-08T18:06:45;-18470.00;;;6.03;87.52
28606;BME280;46498;49.968;7.754;2024-03-08T18:11:46;-18466.00;;;5.91;89.16
28606;BME280;46498;49.968;7.754;2024-03-08T18:16:47;-18464.00;;;5.86;89.67
28606;BME280;46498;49.968;7.754;2024-03-08T18:21:49;-18462.00;;;5.79;89.07
28606;BME280;46498;49.968;7.754;2024-03-08T18:26:51;-18465.00;;;5.88;87.76
28606;BME280;46498;49.968;7.754;2024-03-08T18:31:51;-18469.00;;;5.99;84.66
28606;BME280;46498;49.968;7.754;2024-03-08T18:36:52;-18466.00;;;5.92;85.70
28606;BME280;46498;49.968;7.754;2024-03-08T18:41:53;-18464.00;;;5.85;86.28
28606;BME280;46498;49.968;7.754;2024-03-08T18:46:55;-18465.00;;;5.88;86.00
28606;BME280;46498;49.968;7.754;2024-03-08T18:51:57;-18466.00;;;5.91;85.21
28606;BME280;46498;49.968;7.754;2024-03-08T18:57:01;-18465.00;;;5.88;84.95
28606;BME280;46498;49.968;7.754;2024-03-08T19:02:05;-18466.00;;;5.92;84.56
28606;BME280;46498;49.968;7.754;2024-03-08T19:07:06;-18463.00;;;5.82;85.60
28606;BME280;46498;49.968;7.754;2024-03-08T19:12:10;-18466.00;;;5.92;84.47
28606;BME280;46498;49.968;7.754;2024-03-08T19:17:13;-18465.00;;;5.89;83.60
28606;BME280;46498;49.968;7.754;2024-03-08T19:22:14;-18464.00;;;5.84;85.14
28606;BME280;46498;49.968;7.754;2024-03-08T19:27:16;-18463.00;;;5.80;83.88
28606;BME280;46498;49.968;7.754;2024-03-08T19:32:17;-18463.00;;;5.81;83.69
28606;BME280;46498;49.968;7.754;2024-03-08T19:37:18;-18462.00;;;5.80;83.30
28606;BME280;46498;49.968;7.754;2024-03-08T19:42:20;-18462.00;;;5.79;83.11
28606;BME280;46498;49.968;7.754;2024-03-08T19:47:22;-18461.00;;;5.77;82.75
28606;BME280;46498;49.968;7.754;2024-03-08T19:52:22;-18463.00;;;5.80;82.71
28606;BME280;46498;49.968;7.754;2024-03-08T19:57:23;-18460.00;;;5.74;82.88
28606;BME280;46498;49.968;7.754;2024-03-08T20:02:24;-18459.00;;;5.70;82.77
28606;BME280;46498;49.968;7.754;2024-03-08T20:07:27;-18463.00;;;5.81;80.94
28606;BME280;46498;49.968;7.754;2024-03-08T20:12:28;-18462.00;;;5.80;81.49
28606;BME280;46498;49.968;7.754;2024-03-08T20:17:29;-18460.00;;;5.74;82.00
28606;BME280;46498;49.968;7.754;2024-03-08T20:22:30;-18457.00;;;5.62;84.37
28606;BME280;46498;49.968;7.754;2024-03-08T20:27:31;-18457.00;;;5.64;84.57
28606;BME280;46498;49.968;7.754;2024-03-08T20:32:33;-18454.00;;;5.55;85.83
28606;BME280;46498;49.968;7.754;2024-03-08T20:37:33;-18453.00;;;5.49;87.19
28606;BME280;46498;49.968;7.754;2024-03-08T20:42:34;-18453.00;;;5.49;87.05
28606;BME280;46498;49.968;7.754;2024-03-08T20:47:40;-18451.00;;;5.45;88.14
28606;BME280;46498;49.968;7.754;2024-03-08T20:52:42;-18447.00;;;5.31;91.00
28606;BME280;46498;49.968;7.754;2024-03-08T20:57:43;-18446.00;;;5.29;91.86
28606;BME280;46498;49.968;7.754;2024-03-08T21:02:46;-18444.00;;;5.21;92.68
28606;BME280;46498;49.968;7.754;2024-03-08T21:07:47;-18444.00;;;5.23;93.18
28606;BME280;46498;49.968;7.754;2024-03-08T21:12:48;-18442.00;;;5.17;94.28
28606;BME280;46498;49.968;7.754;2024-03-08T21:17:55;-18439.00;;;5.08;96.01
28606;BME280;46498;49.968;7.754;2024-03-08T21:22:56;-18438.00;;;5.03;96.83
28606;BME280;46498;49.968;7.754;2024-03-08T21:28:00;-18436.00;;;4.96;98.45
28606;BME280;46498;49.968;7.754;2024-03-08T21:33:01;-18435.00;;;4.93;99.04
28606;BME280;46498;49.968;7.754;2024-03-08T21:38:04;-18433.00;;;4.87;100.00
28606;BME280;46498;49.968;7.754;2024-03-08T21:43:05;-18433.00;;;4.86;100.00
28606;BME280;46498;49.968;7.754;2024-03-08T21:48:06;-18430.00;;;4.79;100.00
28606;BME280;46498;49.968;7.754;2024-03-08T21:53:09;-18431.00;;;4.81;100.00
28606;BME280;46498;49.968;7.754;2024-03-08T21:58:26;-18428.00;;;4.72;100.00
28606;BME280;46498;49.968;7.754;2024-03-08T22:03:27;-18428.00;;;4.73;100.00
28606;BME280;46498;49.968;7.754;2024-03-08T22:08:31;-18429.00;;;4.75;100.00
28606;BME280;46498;49.968;7.754;2024-03-08T22:13:34;-18425.00;;;4.64;100.00
28606;BME280;46498;49.968;7.754;2024-03-08T22:18:35;-18419.00;;;4.45;100.00
28606;BME280;46498;49.968;7.754;2024-03-08T22:23:40;-18421.00;;;4.49;100.00
28606;BME280;46498;49.968;7.754;2024-03-08T22:28:41;-18420.00;;;4.47;100.00
28606;BME280;46498;49.968;7.754;2024-03-08T22:33:44;-18417.00;;;4.36;100.00
28606;BME280;46498;49.968;7.754;2024-03-08T22:38:44;-18420.00;;;4.47;100.00
28606;BME280;46498;49.968;7.754;2024-03-08T22:43:45;-18419.00;;;4.44;100.00
28606;BME280;46498;49.968;7.754;2024-03-08T22:48:46;-18419.00;;;4.44;100.00
28606;BME280;46498;49.968;7.754;2024-03-08T22:53:47;-18416.00;;;4.35;100.00
28606;BME280;46498;49.968;7.754;2024-03-08T22:58:49;-18412.00;;;4.20;100.00
28606;BME280;46498;49.968;7.754;2024-03-08T23:03:50;-18416.00;;;4.33;100.00
28606;BME280;46498;49.968;7.754;2024-03-08T23:08:53;-18416.00;;;4.33;100.00
28606;BME280;46498;49.968;7.754;2024-03-08T23:13:54;-18415.00;;;4.32;100.00
28606;BME280;46498;49.968;7.754;2024-03-08T23:18:57;-18412.00;;;4.23;100.00
28606;BME280;46498;49.968;7.754;2024-03-08T23:23:58;-18411.00;;;4.17;100.00
28606;BME280;46498;49.968;7.754;2024-03-08T23:29:01;-18412.00;;;4.22;100.00
28606;BME280;46498;49.968;7.754;2024-03-08T23:34:02;-18410.00;;;4.17;100.00
28606;BME280;46498;49.968;7.754;2024-03-08T23:39:03;-18409.00;;;4.12;100.00
28606;BME280;46498;49.968;7.754;2024-03-08T23:44:05;-18406.00;;;4.04;100.00
28606;BME280;46498;49.968;7.754;2024-03-08T23:49:07;-18405.00;;;3.98;100.00
28606;BME280;46498;49.968;7.754;2024-03-08T23:54:08;-18402.00;;;3.91;100.00
28606;BME280;46498;49.968;7.754;2024-03-08T23:59:09;-18403.00;;;3.93;100.00
